48.8°F
Current conditions from King Hill
Updated every 5 minutes
 
  Thursday April 24, 2014

Station Historical Data
Daily Summary for March 30, 2012 Units:  Both    English   Metric
« Previous Day
Next Day »
Daily Weekly Monthly Yearly Custom
  High: Low: Average:
Temperature: 39.9 °F /  4.4 °C 23.1 °F /  -4.9 °C 30.8 °F /  -0.7 °C
Dew Point: 23.8 °F /  -4.6 °C 13.6 °F /  -10.2 °C 18 °F /  -7.8 °C
Humidity: 72% 39% 59%
Wind Speed: 10.0mph /  16.1km/h - 4.5mph /  7.2km/h
Wind Gust: 22.0mph /  35.4km/h - -
Wind- - WNW
Pressure: 30.09 in /  1018.8 hPa 29.94 in /  1013.8 hPa -
Precipitation: 0.02 in /  0.5 mm    
Historical Graphs
 
 
Tabular Data for March 30, 2012
Time Temperature Dew Point Pressure Wind Wind Speed Wind Gust Humidity Daily Rainfall
00:04 32.1 °F /  0.1 °C 23.8 °F /  -4.6 °C 29.94in /  1013.8hPa NW 3.0mph /  4.8km/h 11.0mph /  17.7km/h 71% 0.00in /  0mm
00:09 32.0 °F /  0 °C 23.7 °F /  -4.6 °C 29.95in /  1014.1hPa NNW 5.0mph /  8km/h 11.0mph /  17.7km/h 71% 0.00in /  0mm
00:14 31.9 °F /  -0.1 °C 23.2 °F /  -4.9 °C 29.95in /  1014.1hPa NNW 7.0mph /  11.3km/h 15.0mph /  24.1km/h 70% 0.00in /  0mm
00:19 31.9 °F /  -0.1 °C 22.9 °F /  -5.1 °C 29.95in /  1014.1hPa NW 5.0mph /  8km/h 15.0mph /  24.1km/h 69% 0.00in /  0mm
00:24 31.8 °F /  -0.1 °C 23.1 °F /  -4.9 °C 29.95in /  1014.1hPa NW 2.0mph /  3.2km/h 13.0mph /  20.9km/h 70% 0.00in /  0mm
00:29 31.7 °F /  -0.2 °C 22.7 °F /  -5.2 °C 29.95in /  1014.1hPa NW 2.0mph /  3.2km/h 12.0mph /  19.3km/h 69% 0.00in /  0mm
00:34 31.6 °F /  -0.2 °C 22.9 °F /  -5.1 °C 29.95in /  1014.1hPa NW 3.0mph /  4.8km/h 12.0mph /  19.3km/h 70% 0.00in /  0mm
00:40 31.5 °F /  -0.3 °C 22.8 °F /  -5.1 °C 29.95in /  1014.1hPa NW 2.0mph /  3.2km/h 8.0mph /  12.9km/h 70% 0.00in /  0mm
00:49 31.5 °F /  -0.3 °C 22.8 °F /  -5.1 °C 29.95in /  1014.1hPa NNW 4.0mph /  6.4km/h 13.0mph /  20.9km/h 70% 0.00in /  0mm
00:54 31.4 °F /  -0.3 °C 22.8 °F /  -5.1 °C 29.95in /  1014.1hPa North 3.0mph /  4.8km/h 12.0mph /  19.3km/h 70% 0.00in /  0mm
00:59 31.3 °F /  -0.4 °C 22.7 °F /  -5.2 °C 29.95in /  1014.1hPa NNW 5.0mph /  8km/h 13.0mph /  20.9km/h 70% 0.00in /  0mm
01:04 31.2 °F /  -0.4 °C 22.6 °F /  -5.2 °C 29.95in /  1014.1hPa North 4.0mph /  6.4km/h 13.0mph /  20.9km/h 70% 0.00in /  0mm
01:09 31.1 °F /  -0.5 °C 22.5 °F /  -5.3 °C 29.95in /  1014.1hPa NW 4.0mph /  6.4km/h 11.0mph /  17.7km/h 70% 0.00in /  0mm
01:14 31.1 °F /  -0.5 °C 22.5 °F /  -5.3 °C 29.95in /  1014.1hPa NW 7.0mph /  11.3km/h 11.0mph /  17.7km/h 70% 0.00in /  0mm
01:19 31.0 °F /  -0.6 °C 22.0 °F /  -5.6 °C 29.95in /  1014.1hPa NW 6.0mph /  9.7km/h 17.0mph /  27.4km/h 69% 0.00in /  0mm
01:24 30.9 °F /  -0.6 °C 22.9 °F /  -5.1 °C 29.95in /  1014.1hPa NNW 9.0mph /  14.5km/h 18.0mph /  29km/h 72% 0.00in /  0mm
01:29 30.8 °F /  -0.7 °C 20.8 °F /  -6.2 °C 29.95in /  1014.1hPa NW 4.0mph /  6.4km/h 18.0mph /  29km/h 66% 0.00in /  0mm
01:34 30.7 °F /  -0.7 °C 20.3 °F /  -6.5 °C 29.95in /  1014.1hPa NW 9.0mph /  14.5km/h 18.0mph /  29km/h 65% 0.00in /  0mm
01:39 30.7 °F /  -0.7 °C 20.3 °F /  -6.5 °C 29.95in /  1014.1hPa NNW 6.0mph /  9.7km/h 16.0mph /  25.7km/h 65% 0.00in /  0mm
01:44 30.6 °F /  -0.8 °C 20.2 °F /  -6.6 °C 29.95in /  1014.1hPa NW 3.0mph /  4.8km/h 16.0mph /  25.7km/h 65% 0.00in /  0mm
01:49 30.5 °F /  -0.8 °C 19.8 °F /  -6.8 °C 29.95in /  1014.1hPa NW 7.0mph /  11.3km/h 12.0mph /  19.3km/h 64% 0.00in /  0mm
01:54 30.5 °F /  -0.8 °C 19.8 °F /  -6.8 °C 29.95in /  1014.1hPa NW 6.0mph /  9.7km/h 12.0mph /  19.3km/h 64% 0.00in /  0mm
01:59 30.4 °F /  -0.9 °C 20.0 °F /  -6.7 °C 29.96in /  1014.4hPa NW 10.0mph /  16.1km/h 20.0mph /  32.2km/h 65% 0.00in /  0mm
02:04 30.0 °F /  -1.1 °C 20.4 °F /  -6.4 °C 29.95in /  1014.1hPa NW 8.0mph /  12.9km/h 20.0mph /  32.2km/h 67% 0.00in /  0mm
02:09 29.9 °F /  -1.2 °C 20.6 °F /  -6.3 °C 29.96in /  1014.4hPa NNW 3.0mph /  4.8km/h 20.0mph /  32.2km/h 68% 0.00in /  0mm
02:14 29.7 °F /  -1.3 °C 20.8 °F /  -6.2 °C 29.96in /  1014.4hPa NW 8.0mph /  12.9km/h 15.0mph /  24.1km/h 69% 0.00in /  0mm
02:19 29.5 °F /  -1.4 °C 20.9 °F /  -6.2 °C 29.96in /  1014.4hPa NW 8.0mph /  12.9km/h 15.0mph /  24.1km/h 70% 0.00in /  0mm
02:24 29.3 °F /  -1.5 °C 20.7 °F /  -6.3 °C 29.96in /  1014.4hPa NW 5.0mph /  8km/h 16.0mph /  25.7km/h 70% 0.00in /  0mm
02:29 29.1 °F /  -1.6 °C 20.9 °F /  -6.2 °C 29.96in /  1014.4hPa NW 6.0mph /  9.7km/h 18.0mph /  29km/h 71% 0.00in /  0mm
02:34 28.9 °F /  -1.7 °C 20.7 °F /  -6.3 °C 29.95in /  1014.1hPa NW 6.0mph /  9.7km/h 18.0mph /  29km/h 71% 0.00in /  0mm
02:39 28.9 °F /  -1.7 °C 19.3 °F /  -7.1 °C 29.95in /  1014.1hPa NW 7.0mph /  11.3km/h 16.0mph /  25.7km/h 67% 0.00in /  0mm
02:44 29.0 °F /  -1.7 °C 19.8 °F /  -6.8 °C 29.95in /  1014.1hPa NW 9.0mph /  14.5km/h 18.0mph /  29km/h 68% 0.00in /  0mm
02:49 29.0 °F /  -1.7 °C 19.8 °F /  -6.8 °C 29.95in /  1014.1hPa NW 7.0mph /  11.3km/h 18.0mph /  29km/h 68% 0.00in /  0mm
02:55 29.1 °F /  -1.6 °C 19.5 °F /  -6.9 °C 29.95in /  1014.1hPa NNW 5.0mph /  8km/h 15.0mph /  24.1km/h 67% 0.00in /  0mm
03:00 29.1 °F /  -1.6 °C 19.5 °F /  -6.9 °C 29.95in /  1014.1hPa NW 5.0mph /  8km/h 15.0mph /  24.1km/h 67% 0.00in /  0mm
03:09 29.1 °F /  -1.6 °C 19.2 °F /  -7.1 °C 29.95in /  1014.1hPa NNW 5.0mph /  8km/h 10.0mph /  16.1km/h 66% 0.00in /  0mm
03:14 29.1 °F /  -1.6 °C 19.2 °F /  -7.1 °C 29.95in /  1014.1hPa NW 5.0mph /  8km/h 9.0mph /  14.5km/h 66% 0.00in /  0mm
03:19 29.0 °F /  -1.7 °C 18.3 °F /  -7.6 °C 29.95in /  1014.1hPa NW 8.0mph /  12.9km/h 13.0mph /  20.9km/h 64% 0.00in /  0mm
03:24 29.1 °F /  -1.6 °C 18.8 °F /  -7.3 °C 29.96in /  1014.4hPa NW 7.0mph /  11.3km/h 13.0mph /  20.9km/h 65% 0.00in /  0mm
03:29 29.0 °F /  -1.7 °C 19.1 °F /  -7.2 °C 29.96in /  1014.4hPa NW 4.0mph /  6.4km/h 12.0mph /  19.3km/h 66% 0.00in /  0mm
03:34 28.9 °F /  -1.7 °C 18.6 °F /  -7.4 °C 29.95in /  1014.1hPa NW 1.0mph /  1.6km/h 10.0mph /  16.1km/h 65% 0.00in /  0mm
03:39 28.9 °F /  -1.7 °C 19.0 °F /  -7.2 °C 29.96in /  1014.4hPa NW 2.0mph /  3.2km/h 9.0mph /  14.5km/h 66% 0.00in /  0mm
03:44 28.8 °F /  -1.8 °C 18.9 °F /  -7.3 °C 29.96in /  1014.4hPa NNW 5.0mph /  8km/h 13.0mph /  20.9km/h 66% 0.00in /  0mm
03:49 28.8 °F /  -1.8 °C 18.5 °F /  -7.5 °C 29.96in /  1014.4hPa NNW 5.0mph /  8km/h 13.0mph /  20.9km/h 65% 0.00in /  0mm
03:54 28.6 °F /  -1.9 °C 17.6 °F /  -8 °C 29.96in /  1014.4hPa NNW 7.0mph /  11.3km/h 13.0mph /  20.9km/h 63% 0.00in /  0mm
03:59 28.3 °F /  -2.1 °C 16.6 °F /  -8.6 °C 29.96in /  1014.4hPa NW 9.0mph /  14.5km/h 19.0mph /  30.6km/h 61% 0.00in /  0mm
04:04 28.1 °F /  -2.2 °C 16.4 °F /  -8.7 °C 29.96in /  1014.4hPa NW 7.0mph /  11.3km/h 19.0mph /  30.6km/h 61% 0.00in /  0mm
04:09 27.9 °F /  -2.3 °C 16.2 °F /  -8.8 °C 29.97in /  1014.8hPa NNW 5.0mph /  8km/h 18.0mph /  29km/h 61% 0.00in /  0mm
04:14 27.7 °F /  -2.4 °C 16.0 °F /  -8.9 °C 29.97in /  1014.8hPa NW 4.0mph /  6.4km/h 14.0mph /  22.5km/h 61% 0.00in /  0mm
04:19 27.5 °F /  -2.5 °C 16.2 °F /  -8.8 °C 29.97in /  1014.8hPa NW 4.0mph /  6.4km/h 14.0mph /  22.5km/h 62% 0.00in /  0mm
04:24 27.2 °F /  -2.7 °C 16.3 °F /  -8.7 °C 29.97in /  1014.8hPa NNW 5.0mph /  8km/h 13.0mph /  20.9km/h 63% 0.00in /  0mm
04:29 27.0 °F /  -2.8 °C 16.4 °F /  -8.7 °C 29.97in /  1014.8hPa NW 2.0mph /  3.2km/h 12.0mph /  19.3km/h 64% 0.00in /  0mm
04:34 26.7 °F /  -2.9 °C 16.2 °F /  -8.8 °C 29.97in /  1014.8hPa NNW 5.0mph /  8km/h 15.0mph /  24.1km/h 64% 0.00in /  0mm
04:39 26.6 °F /  -3 °C 15.7 °F /  -9.1 °C 29.97in /  1014.8hPa NW 9.0mph /  14.5km/h 17.0mph /  27.4km/h 63% 0.00in /  0mm
04:44 26.7 °F /  -2.9 °C 15.8 °F /  -9 °C 29.97in /  1014.8hPa NW 7.0mph /  11.3km/h 17.0mph /  27.4km/h 63% 0.00in /  0mm
04:49 26.8 °F /  -2.9 °C 15.9 °F /  -8.9 °C 29.97in /  1014.8hPa NW 6.0mph /  9.7km/h 16.0mph /  25.7km/h 63% 0.00in /  0mm
04:59 26.5 °F /  -3.1 °C 15.2 °F /  -9.3 °C 29.98in /  1015.1hPa NW 10.0mph /  16.1km/h 18.0mph /  29km/h 62% 0.00in /  0mm
05:04 26.3 °F /  -3.2 °C 15.4 °F /  -9.2 °C 29.98in /  1015.1hPa NW 7.0mph /  11.3km/h 18.0mph /  29km/h 63% 0.00in /  0mm
05:09 26.1 °F /  -3.3 °C 15.2 °F /  -9.3 °C 29.98in /  1015.1hPa NW 5.0mph /  8km/h 15.0mph /  24.1km/h 63% 0.00in /  0mm
05:14 25.9 °F /  -3.4 °C 15.4 °F /  -9.2 °C 29.98in /  1015.1hPa NNW 3.0mph /  4.8km/h 16.0mph /  25.7km/h 64% 0.00in /  0mm
05:19 25.5 °F /  -3.6 °C 15.0 °F /  -9.4 °C 29.99in /  1015.5hPa NNW 3.0mph /  4.8km/h 16.0mph /  25.7km/h 64% 0.00in /  0mm
05:24 25.3 °F /  -3.7 °C 14.8 °F /  -9.6 °C 29.99in /  1015.5hPa NNW 6.0mph /  9.7km/h 14.0mph /  22.5km/h 64% 0.00in /  0mm
05:29 25.4 °F /  -3.7 °C 14.9 °F /  -9.5 °C 29.98in /  1015.1hPa NW 5.0mph /  8km/h 15.0mph /  24.1km/h 64% 0.00in /  0mm
05:34 25.2 °F /  -3.8 °C 14.7 °F /  -9.6 °C 29.98in /  1015.1hPa NNW 3.0mph /  4.8km/h 15.0mph /  24.1km/h 64% 0.00in /  0mm
05:39 25.0 °F /  -3.9 °C 14.9 °F /  -9.5 °C 29.98in /  1015.1hPa NNW 3.0mph /  4.8km/h 9.0mph /  14.5km/h 65% 0.00in /  0mm
05:44 24.8 °F /  -4 °C 14.7 °F /  -9.6 °C 29.98in /  1015.1hPa NW 2.0mph /  3.2km/h 11.0mph /  17.7km/h 65% 0.00in /  0mm
05:49 24.5 °F /  -4.2 °C 14.4 °F /  -9.8 °C 29.99in /  1015.5hPa NW 6.0mph /  9.7km/h 12.0mph /  19.3km/h 65% 0.00in /  0mm
05:54 24.5 °F /  -4.2 °C 14.4 °F /  -9.8 °C 29.99in /  1015.5hPa NW 3.0mph /  4.8km/h 12.0mph /  19.3km/h 65% 0.00in /  0mm
05:59 24.4 °F /  -4.2 °C 14.3 °F /  -9.8 °C 29.99in /  1015.5hPa NW 4.0mph /  6.4km/h 9.0mph /  14.5km/h 65% 0.00in /  0mm
06:04 24.3 °F /  -4.3 °C 14.2 °F /  -9.9 °C 29.99in /  1015.5hPa NNW 4.0mph /  6.4km/h 11.0mph /  17.7km/h 65% 0.00in /  0mm
06:09 24.2 °F /  -4.3 °C 14.1 °F /  -9.9 °C 29.99in /  1015.5hPa NNW 5.0mph /  8km/h 11.0mph /  17.7km/h 65% 0.00in /  0mm
06:14 24.2 °F /  -4.3 °C 14.1 °F /  -9.9 °C 29.99in /  1015.5hPa NNW 6.0mph /  9.7km/h 14.0mph /  22.5km/h 65% 0.00in /  0mm
06:19 24.2 °F /  -4.3 °C 14.1 °F /  -9.9 °C 29.99in /  1015.5hPa NNW 4.0mph /  6.4km/h 14.0mph /  22.5km/h 65% 0.00in /  0mm
06:24 24.1 °F /  -4.4 °C 14.0 °F /  -10 °C 29.99in /  1015.5hPa NW 4.0mph /  6.4km/h 14.0mph /  22.5km/h 65% 0.00in /  0mm
06:29 23.9 °F /  -4.5 °C 13.8 °F /  -10.1 °C 30.00in /  1015.8hPa NNW 2.0mph /  3.2km/h 14.0mph /  22.5km/h 65% 0.00in /  0mm
06:39 23.8 °F /  -4.6 °C 14.1 °F /  -9.9 °C 30.00in /  1015.8hPa NW 3.0mph /  4.8km/h 10.0mph /  16.1km/h 66% 0.00in /  0mm
06:44 23.9 °F /  -4.5 °C 14.2 °F /  -9.9 °C 30.00in /  1015.8hPa NW 5.0mph /  8km/h 10.0mph /  16.1km/h 66% 0.00in /  0mm
06:49 23.9 °F /  -4.5 °C 14.5 °F /  -9.7 °C 30.00in /  1015.8hPa NW 4.0mph /  6.4km/h 11.0mph /  17.7km/h 67% 0.00in /  0mm
06:54 23.9 °F /  -4.5 °C 14.2 °F /  -9.9 °C 30.00in /  1015.8hPa NNW 4.0mph /  6.4km/h 11.0mph /  17.7km/h 66% 0.00in /  0mm
06:59 23.8 °F /  -4.6 °C 14.1 °F /  -9.9 °C 30.00in /  1015.8hPa Calm   11.0mph /  17.7km/h 66% 0.00in /  0mm
07:04 23.6 °F /  -4.7 °C 14.3 °F /  -9.8 °C 30.01in /  1016.1hPa Calm   9.0mph /  14.5km/h 67% 0.00in /  0mm
07:09 23.2 °F /  -4.9 °C 14.2 °F /  -9.9 °C 30.01in /  1016.1hPa Calm   1.0mph /  1.6km/h 68% 0.00in /  0mm
07:14 23.1 °F /  -4.9 °C 14.4 °F /  -9.8 °C 30.01in /  1016.1hPa NNW 1.0mph /  1.6km/h 9.0mph /  14.5km/h 69% 0.00in /  0mm
07:19 23.3 °F /  -4.8 °C 14.6 °F /  -9.7 °C 30.02in /  1016.5hPa NW 2.0mph /  3.2km/h 9.0mph /  14.5km/h 69% 0.00in /  0mm
07:24 23.3 °F /  -4.8 °C 14.6 °F /  -9.7 °C 30.02in /  1016.5hPa NW 1.0mph /  1.6km/h 9.0mph /  14.5km/h 69% 0.00in /  0mm
07:29 23.3 °F /  -4.8 °C 14.6 °F /  -9.7 °C 30.02in /  1016.5hPa NNW 1.0mph /  1.6km/h 6.0mph /  9.7km/h 69% 0.00in /  0mm
07:34 23.5 °F /  -4.7 °C 13.8 °F /  -10.1 °C 30.03in /  1016.8hPa NNW 4.0mph /  6.4km/h 8.0mph /  12.9km/h 66% 0.00in /  0mm
07:39 23.8 °F /  -4.6 °C 14.1 °F /  -9.9 °C 30.04in /  1017.2hPa NNW 5.0mph /  8km/h 12.0mph /  19.3km/h 66% 0.00in /  0mm
07:45 23.9 °F /  -4.5 °C 14.2 °F /  -9.9 °C 30.04in /  1017.2hPa NNW 3.0mph /  4.8km/h 12.0mph /  19.3km/h 66% 0.00in /  0mm
07:54 24.1 °F /  -4.4 °C 13.7 °F /  -10.2 °C 30.05in /  1017.5hPa NW 7.0mph /  11.3km/h 13.0mph /  20.9km/h 64% 0.00in /  0mm
07:59 24.3 °F /  -4.3 °C 13.9 °F /  -10.1 °C 30.05in /  1017.5hPa NW 6.0mph /  9.7km/h 12.0mph /  19.3km/h 64% 0.00in /  0mm
08:04 24.4 °F /  -4.2 °C 13.6 °F /  -10.2 °C 30.05in /  1017.5hPa NW 7.0mph /  11.3km/h 22.0mph /  35.4km/h 63% 0.00in /  0mm
08:09 24.4 °F /  -4.2 °C 14.0 °F /  -10 °C 30.06in /  1017.8hPa NW 6.0mph /  9.7km/h 22.0mph /  35.4km/h 64% 0.00in /  0mm
08:14 24.5 °F /  -4.2 °C 14.1 °F /  -9.9 °C 30.06in /  1017.8hPa NNW 6.0mph /  9.7km/h 11.0mph /  17.7km/h 64% 0.00in /  0mm
08:19 24.8 °F /  -4 °C 14.0 °F /  -10 °C 30.06in /  1017.8hPa NW 10.0mph /  16.1km/h 20.0mph /  32.2km/h 63% 0.00in /  0mm
08:24 25.3 °F /  -3.7 °C 14.5 °F /  -9.7 °C 30.06in /  1017.8hPa NNW 3.0mph /  4.8km/h 20.0mph /  32.2km/h 63% 0.00in /  0mm
08:39 25.8 °F /  -3.4 °C 14.6 °F /  -9.7 °C 30.06in /  1017.8hPa NW 7.0mph /  11.3km/h 17.0mph /  27.4km/h 62% 0.00in /  0mm
08:44 25.6 °F /  -3.6 °C 14.0 °F /  -10 °C 30.06in /  1017.8hPa WNW 9.0mph /  14.5km/h 17.0mph /  27.4km/h 61% 0.00in /  0mm
08:54 26.0 °F /  -3.3 °C 14.8 °F /  -9.6 °C 30.06in /  1017.8hPa NW 8.0mph /  12.9km/h 18.0mph /  29km/h 62% 0.00in /  0mm
08:59 26.1 °F /  -3.3 °C 14.9 °F /  -9.5 °C 30.06in /  1017.8hPa NW 3.0mph /  4.8km/h 18.0mph /  29km/h 62% 0.00in /  0mm
09:04 26.4 °F /  -3.1 °C 15.1 °F /  -9.4 °C 30.06in /  1017.8hPa NNW 7.0mph /  11.3km/h 17.0mph /  27.4km/h 62% 0.00in /  0mm
09:09 26.4 °F /  -3.1 °C 15.1 °F /  -9.4 °C 30.06in /  1017.8hPa NW 7.0mph /  11.3km/h 17.0mph /  27.4km/h 62% 0.00in /  0mm
09:14 26.9 °F /  -2.8 °C 16.0 °F /  -8.9 °C 30.06in /  1017.8hPa NNW 3.0mph /  4.8km/h 12.0mph /  19.3km/h 63% 0.00in /  0mm
09:19 26.9 °F /  -2.8 °C 15.6 °F /  -9.1 °C 30.07in /  1018.2hPa NW 5.0mph /  8km/h 14.0mph /  22.5km/h 62% 0.00in /  0mm
09:24 27.5 °F /  -2.5 °C 16.9 °F /  -8.4 °C 30.07in /  1018.2hPa NNW 1.0mph /  1.6km/h 14.0mph /  22.5km/h 64% 0.00in /  0mm
09:29 27.8 °F /  -2.3 °C 16.5 °F /  -8.6 °C 30.07in /  1018.2hPa NNW 4.0mph /  6.4km/h 15.0mph /  24.1km/h 62% 0.00in /  0mm
09:34 27.7 °F /  -2.4 °C 16.7 °F /  -8.5 °C 30.07in /  1018.2hPa NNW 5.0mph /  8km/h 15.0mph /  24.1km/h 63% 0.00in /  0mm
09:39 27.6 °F /  -2.4 °C 15.5 °F /  -9.2 °C 30.07in /  1018.2hPa NW 6.0mph /  9.7km/h 12.0mph /  19.3km/h 60% 0.00in /  0mm
09:49 27.5 °F /  -2.5 °C 16.6 °F /  -8.6 °C 30.07in /  1018.2hPa NNW 4.0mph /  6.4km/h 16.0mph /  25.7km/h 63% 0.00in /  0mm
09:54 27.7 °F /  -2.4 °C 16.7 °F /  -8.5 °C 30.08in /  1018.5hPa NNW 4.0mph /  6.4km/h 16.0mph /  25.7km/h 63% 0.00in /  0mm
09:59 28.1 °F /  -2.2 °C 16.8 °F /  -8.4 °C 30.08in /  1018.5hPa NNW 6.0mph /  9.7km/h 12.0mph /  19.3km/h 62% 0.00in /  0mm
10:04 28.1 °F /  -2.2 °C 17.1 °F /  -8.3 °C 30.08in /  1018.5hPa NNW 2.0mph /  3.2km/h 12.0mph /  19.3km/h 63% 0.00in /  0mm
10:09 28.8 °F /  -1.8 °C 18.2 °F /  -7.7 °C 30.08in /  1018.5hPa NNW 3.0mph /  4.8km/h 12.0mph /  19.3km/h 64% 0.00in /  0mm
10:14 29.2 °F /  -1.6 °C 17.8 °F /  -7.9 °C 30.08in /  1018.5hPa NW 4.0mph /  6.4km/h 9.0mph /  14.5km/h 62% 0.00in /  0mm
10:19 28.8 °F /  -1.8 °C 17.0 °F /  -8.3 °C 30.09in /  1018.8hPa NW 4.0mph /  6.4km/h 11.0mph /  17.7km/h 61% 0.00in /  0mm
10:24 29.2 °F /  -1.6 °C 18.9 °F /  -7.3 °C 30.09in /  1018.8hPa North 2.0mph /  3.2km/h 11.0mph /  17.7km/h 65% 0.00in /  0mm
10:29 29.0 °F /  -1.7 °C 17.2 °F /  -8.2 °C 30.09in /  1018.8hPa NNW 7.0mph /  11.3km/h 12.0mph /  19.3km/h 61% 0.00in /  0mm
10:34 28.7 °F /  -1.8 °C 17.7 °F /  -7.9 °C 30.09in /  1018.8hPa NW 4.0mph /  6.4km/h 12.0mph /  19.3km/h 63% 0.00in /  0mm
10:44 29.1 °F /  -1.6 °C 16.9 °F /  -8.4 °C 30.09in /  1018.8hPa NNW 5.0mph /  8km/h 15.0mph /  24.1km/h 60% 0.01in /  0.3mm
10:49 29.5 °F /  -1.4 °C 17.7 °F /  -7.9 °C 30.09in /  1018.8hPa NNW 4.0mph /  6.4km/h 12.0mph /  19.3km/h 61% 0.01in /  0.3mm
10:54 30.1 °F /  -1.1 °C 18.7 °F /  -7.4 °C 30.09in /  1018.8hPa NNW 3.0mph /  4.8km/h 9.0mph /  14.5km/h 62% 0.01in /  0.3mm
11:04 30.4 °F /  -0.9 °C 17.8 °F /  -7.9 °C 30.09in /  1018.8hPa NNW 2.0mph /  3.2km/h 11.0mph /  17.7km/h 59% 0.01in /  0.3mm
11:14 30.6 °F /  -0.8 °C 18.7 °F /  -7.4 °C 30.09in /  1018.8hPa NNW 4.0mph /  6.4km/h 9.0mph /  14.5km/h 61% 0.01in /  0.3mm
11:19 30.9 °F /  -0.6 °C 19.0 °F /  -7.2 °C 30.09in /  1018.8hPa NNW 2.0mph /  3.2km/h 9.0mph /  14.5km/h 61% 0.01in /  0.3mm
11:24 31.1 °F /  -0.5 °C 18.4 °F /  -7.6 °C 30.09in /  1018.8hPa NW 3.0mph /  4.8km/h 9.0mph /  14.5km/h 59% 0.01in /  0.3mm
11:29 31.2 °F /  -0.4 °C 20.4 °F /  -6.4 °C 30.09in /  1018.8hPa WNW 3.0mph /  4.8km/h 9.0mph /  14.5km/h 64% 0.01in /  0.3mm
11:34 31.4 °F /  -0.3 °C 20.3 °F /  -6.5 °C 30.09in /  1018.8hPa NNW 5.0mph /  8km/h 9.0mph /  14.5km/h 63% 0.01in /  0.3mm
11:39 31.3 °F /  -0.4 °C 19.4 °F /  -7 °C 30.08in /  1018.5hPa WNW 8.0mph /  12.9km/h 12.0mph /  19.3km/h 61% 0.01in /  0.3mm
11:49 32.1 °F /  0.1 °C 19.8 °F /  -6.8 °C 30.08in /  1018.5hPa NNW 3.0mph /  4.8km/h 10.0mph /  16.1km/h 60% 0.02in /  0.5mm
11:54 32.1 °F /  0.1 °C 19.0 °F /  -7.2 °C 30.08in /  1018.5hPa NW 5.0mph /  8km/h 11.0mph /  17.7km/h 58% 0.02in /  0.5mm
11:59 32.5 °F /  0.3 °C 19.0 °F /  -7.2 °C 30.08in /  1018.5hPa NW 5.0mph /  8km/h 12.0mph /  19.3km/h 57% 0.02in /  0.5mm
12:04 32.4 °F /  0.2 °C 19.7 °F /  -6.8 °C 30.08in /  1018.5hPa WNW 7.0mph /  11.3km/h 12.0mph /  19.3km/h 59% 0.02in /  0.5mm
12:09 32.6 °F /  0.3 °C 21.0 °F /  -6.1 °C 30.08in /  1018.5hPa Calm   11.0mph /  17.7km/h 62% 0.02in /  0.5mm
12:14 32.7 °F /  0.4 °C 19.1 °F /  -7.2 °C 30.08in /  1018.5hPa NW 4.0mph /  6.4km/h 13.0mph /  20.9km/h 57% 0.02in /  0.5mm
12:19 33.0 °F /  0.6 °C 19.8 °F /  -6.8 °C 30.08in /  1018.5hPa NNW 4.0mph /  6.4km/h 13.0mph /  20.9km/h 58% 0.02in /  0.5mm
12:29 33.9 °F /  1.1 °C 19.9 °F /  -6.7 °C 30.08in /  1018.5hPa NNW 6.0mph /  9.7km/h 10.0mph /  16.1km/h 56% 0.02in /  0.5mm
12:34 34.4 °F /  1.3 °C 22.7 °F /  -5.2 °C 30.07in /  1018.2hPa NW 4.0mph /  6.4km/h 10.0mph /  16.1km/h 62% 0.02in /  0.5mm
12:39 34.4 °F /  1.3 °C 22.3 °F /  -5.4 °C 30.07in /  1018.2hPa NNW 3.0mph /  4.8km/h 9.0mph /  14.5km/h 61% 0.02in /  0.5mm
12:44 34.5 °F /  1.4 °C 20.8 °F /  -6.2 °C 30.07in /  1018.2hPa North 3.0mph /  4.8km/h 9.0mph /  14.5km/h 57% 0.02in /  0.5mm
12:54 35.5 °F /  1.9 °C 20.9 °F /  -6.2 °C 30.07in /  1018.2hPa North 4.0mph /  6.4km/h 8.0mph /  12.9km/h 55% 0.02in /  0.5mm
12:59 36.1 °F /  2.3 °C 21.9 °F /  -5.6 °C 30.07in /  1018.2hPa NNW 3.0mph /  4.8km/h 7.0mph /  11.3km/h 56% 0.02in /  0.5mm
13:04 35.9 °F /  2.2 °C 20.9 °F /  -6.2 °C 30.07in /  1018.2hPa NNW 4.0mph /  6.4km/h 12.0mph /  19.3km/h 54% 0.02in /  0.5mm
13:09 35.3 °F /  1.8 °C 19.4 °F /  -7 °C 30.06in /  1017.8hPa NW 7.0mph /  11.3km/h 15.0mph /  24.1km/h 52% 0.02in /  0.5mm
13:14 35.1 °F /  1.7 °C 19.2 °F /  -7.1 °C 30.06in /  1017.8hPa NW 6.0mph /  9.7km/h 15.0mph /  24.1km/h 52% 0.02in /  0.5mm
13:19 35.4 °F /  1.9 °C 20.8 °F /  -6.2 °C 30.06in /  1017.8hPa NNE 3.0mph /  4.8km/h 9.0mph /  14.5km/h 55% 0.02in /  0.5mm
13:24 35.3 °F /  1.8 °C 19.9 °F /  -6.7 °C 30.06in /  1017.8hPa NW 6.0mph /  9.7km/h 10.0mph /  16.1km/h 53% 0.02in /  0.5mm
13:29 35.7 °F /  2.1 °C 19.3 °F /  -7.1 °C 30.06in /  1017.8hPa North 5.0mph /  8km/h 12.0mph /  19.3km/h 51% 0.02in /  0.5mm
13:39 36.0 °F /  2.2 °C 19.2 °F /  -7.1 °C 30.05in /  1017.5hPa NW 8.0mph /  12.9km/h 16.0mph /  25.7km/h 50% 0.02in /  0.5mm
13:44 35.4 °F /  1.9 °C 18.1 °F /  -7.7 °C 30.05in /  1017.5hPa NW 8.0mph /  12.9km/h 16.0mph /  25.7km/h 49% 0.02in /  0.5mm
13:49 35.3 °F /  1.8 °C 19.9 °F /  -6.7 °C 30.05in /  1017.5hPa NW 5.0mph /  8km/h 16.0mph /  25.7km/h 53% 0.02in /  0.5mm
13:54 36.1 °F /  2.3 °C 21.5 °F /  -5.8 °C 30.04in /  1017.2hPa NW 8.0mph /  12.9km/h 17.0mph /  27.4km/h 55% 0.02in /  0.5mm
13:59 36.4 °F /  2.4 °C 19.1 °F /  -7.2 °C 30.04in /  1017.2hPa NW 5.0mph /  8km/h 17.0mph /  27.4km/h 49% 0.02in /  0.5mm
14:04 37.1 °F /  2.8 °C 20.2 °F /  -6.6 °C 30.03in /  1016.8hPa NNW 3.0mph /  4.8km/h 11.0mph /  17.7km/h 50% 0.02in /  0.5mm
14:09 37.7 °F /  3.2 °C 19.3 °F /  -7.1 °C 30.03in /  1016.8hPa North 3.0mph /  4.8km/h 10.0mph /  16.1km/h 47% 0.02in /  0.5mm
14:15 37.9 °F /  3.3 °C 19.5 °F /  -6.9 °C 30.02in /  1016.5hPa NNW 5.0mph /  8km/h 13.0mph /  20.9km/h 47% 0.02in /  0.5mm
14:24 37.7 °F /  3.2 °C 18.3 °F /  -7.6 °C 30.02in /  1016.5hPa NNE 6.0mph /  9.7km/h 13.0mph /  20.9km/h 45% 0.02in /  0.5mm
14:29 37.8 °F /  3.2 °C 19.4 °F /  -7 °C 30.02in /  1016.5hPa NNE 4.0mph /  6.4km/h 13.0mph /  20.9km/h 47% 0.02in /  0.5mm
14:34 37.8 °F /  3.2 °C 17.8 °F /  -7.9 °C 30.02in /  1016.5hPa NW 5.0mph /  8km/h 9.0mph /  14.5km/h 44% 0.02in /  0.5mm
14:39 37.4 °F /  3 °C 19.0 °F /  -7.2 °C 30.02in /  1016.5hPa NNW 4.0mph /  6.4km/h 9.0mph /  14.5km/h 47% 0.02in /  0.5mm
14:44 38.0 °F /  3.3 °C 20.5 °F /  -6.4 °C 30.01in /  1016.1hPa North 2.0mph /  3.2km/h 9.0mph /  14.5km/h 49% 0.02in /  0.5mm
14:49 38.7 °F /  3.7 °C 19.2 °F /  -7.1 °C 30.01in /  1016.1hPa NNW 3.0mph /  4.8km/h 9.0mph /  14.5km/h 45% 0.02in /  0.5mm
14:59 38.7 °F /  3.7 °C 19.2 °F /  -7.1 °C 30.01in /  1016.1hPa North 1.0mph /  1.6km/h 8.0mph /  12.9km/h 45% 0.02in /  0.5mm
15:04 38.8 °F /  3.8 °C 18.7 °F /  -7.4 °C 30.01in /  1016.1hPa NW 5.0mph /  8km/h 9.0mph /  14.5km/h 44% 0.02in /  0.5mm
15:09 38.6 °F /  3.7 °C 17.5 °F /  -8.1 °C 30.01in /  1016.1hPa WNW 5.0mph /  8km/h 9.0mph /  14.5km/h 42% 0.02in /  0.5mm
15:14 38.6 °F /  3.7 °C 17.5 °F /  -8.1 °C 30.01in /  1016.1hPa NW 5.0mph /  8km/h 9.0mph /  14.5km/h 42% 0.02in /  0.5mm
15:19 38.6 °F /  3.7 °C 18.0 °F /  -7.8 °C 30.01in /  1016.1hPa NW 5.0mph /  8km/h 9.0mph /  14.5km/h 43% 0.02in /  0.5mm
15:24 38.9 °F /  3.8 °C 18.8 °F /  -7.3 °C 30.01in /  1016.1hPa NW 3.0mph /  4.8km/h 9.0mph /  14.5km/h 44% 0.02in /  0.5mm
15:29 39.2 °F /  4 °C 18.0 °F /  -7.8 °C 30.01in /  1016.1hPa NNW 5.0mph /  8km/h 9.0mph /  14.5km/h 42% 0.02in /  0.5mm
15:34 38.7 °F /  3.7 °C 17.6 °F /  -8 °C 30.01in /  1016.1hPa NNE 3.0mph /  4.8km/h 9.0mph /  14.5km/h 42% 0.02in /  0.5mm
15:39 38.3 °F /  3.5 °C 16.7 °F /  -8.5 °C 30.01in /  1016.1hPa NNW 5.0mph /  8km/h 8.0mph /  12.9km/h 41% 0.02in /  0.5mm
15:44 38.4 °F /  3.6 °C 16.2 °F /  -8.8 °C 30.01in /  1016.1hPa NW 6.0mph /  9.7km/h 10.0mph /  16.1km/h 40% 0.02in /  0.5mm
15:49 38.4 °F /  3.6 °C 16.7 °F /  -8.5 °C 30.00in /  1015.8hPa NNW 1.0mph /  1.6km/h 10.0mph /  16.1km/h 41% 0.02in /  0.5mm
15:54 38.7 °F /  3.7 °C 18.7 °F /  -7.4 °C 30.00in /  1015.8hPa North 3.0mph /  4.8km/h 10.0mph /  16.1km/h 44% 0.02in /  0.5mm
16:04 39.2 °F /  4 °C 17.5 °F /  -8.1 °C 30.00in /  1015.8hPa NNE 2.0mph /  3.2km/h 10.0mph /  16.1km/h 41% 0.02in /  0.5mm
16:09 39.2 °F /  4 °C 17.5 °F /  -8.1 °C 30.00in /  1015.8hPa North 2.0mph /  3.2km/h 11.0mph /  17.7km/h 41% 0.02in /  0.5mm
16:14 39.9 °F /  4.4 °C 19.2 °F /  -7.1 °C 30.00in /  1015.8hPa North 3.0mph /  4.8km/h 11.0mph /  17.7km/h 43% 0.02in /  0.5mm
16:19 39.7 °F /  4.3 °C 16.8 °F /  -8.4 °C 30.00in /  1015.8hPa NNW 4.0mph /  6.4km/h 14.0mph /  22.5km/h 39% 0.02in /  0.5mm
16:24 39.2 °F /  4 °C 17.5 °F /  -8.1 °C 30.00in /  1015.8hPa North 3.0mph /  4.8km/h 14.0mph /  22.5km/h 41% 0.02in /  0.5mm
16:29 38.8 °F /  3.8 °C 17.1 °F /  -8.3 °C 30.01in /  1016.1hPa NNW 3.0mph /  4.8km/h 8.0mph /  12.9km/h 41% 0.02in /  0.5mm
16:34 38.2 °F /  3.4 °C 17.1 °F /  -8.3 °C 30.01in /  1016.1hPa North 3.0mph /  4.8km/h 8.0mph /  12.9km/h 42% 0.02in /  0.5mm
16:39 37.9 °F /  3.3 °C 17.9 °F /  -7.8 °C 30.01in /  1016.1hPa Calm   6.0mph /  9.7km/h 44% 0.02in /  0.5mm
16:44 37.5 °F /  3.1 °C 17.0 °F /  -8.3 °C 30.01in /  1016.1hPa North 1.0mph /  1.6km/h 9.0mph /  14.5km/h 43% 0.02in /  0.5mm
16:54 37.3 °F /  2.9 °C 17.9 °F /  -7.8 °C 30.01in /  1016.1hPa North 2.0mph /  3.2km/h 9.0mph /  14.5km/h 45% 0.02in /  0.5mm
16:59 37.3 °F /  2.9 °C 16.8 °F /  -8.4 °C 30.01in /  1016.1hPa NNW 3.0mph /  4.8km/h 9.0mph /  14.5km/h 43% 0.02in /  0.5mm
17:04 37.0 °F /  2.8 °C 16.0 °F /  -8.9 °C 30.01in /  1016.1hPa NNW 2.0mph /  3.2km/h 6.0mph /  9.7km/h 42% 0.02in /  0.5mm
17:09 36.7 °F /  2.6 °C 16.8 °F /  -8.4 °C 30.01in /  1016.1hPa NNW 2.0mph /  3.2km/h 6.0mph /  9.7km/h 44% 0.02in /  0.5mm
17:14 36.8 °F /  2.7 °C 16.9 °F /  -8.4 °C 30.01in /  1016.1hPa North 1.0mph /  1.6km/h 6.0mph /  9.7km/h 44% 0.02in /  0.5mm
17:19 36.8 °F /  2.7 °C 17.4 °F /  -8.1 °C 30.01in /  1016.1hPa NNE 2.0mph /  3.2km/h 7.0mph /  11.3km/h 45% 0.02in /  0.5mm
17:24 36.6 °F /  2.6 °C 16.7 °F /  -8.5 °C 30.01in /  1016.1hPa NNW 2.0mph /  3.2km/h 7.0mph /  11.3km/h 44% 0.02in /  0.5mm
17:29 36.5 °F /  2.5 °C 17.7 °F /  -7.9 °C 30.01in /  1016.1hPa North 1.0mph /  1.6km/h 6.0mph /  9.7km/h 46% 0.02in /  0.5mm
17:34 36.5 °F /  2.5 °C 17.7 °F /  -7.9 °C 30.01in /  1016.1hPa NNE 1.0mph /  1.6km/h 6.0mph /  9.7km/h 46% 0.02in /  0.5mm
17:39 36.4 °F /  2.4 °C 17.6 °F /  -8 °C 30.01in /  1016.1hPa NNW 2.0mph /  3.2km/h 5.0mph /  8km/h 46% 0.02in /  0.5mm
17:44 36.4 °F /  2.4 °C 17.6 °F /  -8 °C 30.00in /  1015.8hPa Calm   5.0mph /  8km/h 46% 0.02in /  0.5mm
17:50 36.3 °F /  2.4 °C 18.5 °F /  -7.5 °C 30.01in /  1016.1hPa Calm   2.0mph /  3.2km/h 48% 0.02in /  0.5mm
17:59 36.0 °F /  2.2 °C 18.2 °F /  -7.7 °C 30.00in /  1015.8hPa Calm   4.0mph /  6.4km/h 48% 0.02in /  0.5mm
18:04 35.9 °F /  2.2 °C 18.1 °F /  -7.7 °C 30.01in /  1016.1hPa Calm   3.0mph /  4.8km/h 48% 0.02in /  0.5mm
18:09 35.7 °F /  2.1 °C 18.4 °F /  -7.6 °C 30.00in /  1015.8hPa Calm   3.0mph /  4.8km/h 49% 0.02in /  0.5mm
18:14 35.6 °F /  2 °C 18.3 °F /  -7.6 °C 30.00in /  1015.8hPa Calm   2.0mph /  3.2km/h 49% 0.02in /  0.5mm
18:19 35.3 °F /  1.8 °C 17.6 °F /  -8 °C 30.00in /  1015.8hPa NE 1.0mph /  1.6km/h 5.0mph /  8km/h 48% 0.02in /  0.5mm
18:24 35.0 °F /  1.7 °C 17.8 °F /  -7.9 °C 30.01in /  1016.1hPa Calm   5.0mph /  8km/h 49% 0.02in /  0.5mm
18:29 34.7 °F /  1.5 °C 18.0 °F /  -7.8 °C 30.01in /  1016.1hPa NE 1.0mph /  1.6km/h 7.0mph /  11.3km/h 50% 0.02in /  0.5mm
18:34 34.4 °F /  1.3 °C 17.7 °F /  -7.9 °C 30.00in /  1015.8hPa NNE 2.0mph /  3.2km/h 7.0mph /  11.3km/h 50% 0.02in /  0.5mm
18:39 34.3 °F /  1.3 °C 17.6 °F /  -8 °C 30.00in /  1015.8hPa ENE 1.0mph /  1.6km/h 5.0mph /  8km/h 50% 0.02in /  0.5mm
18:49 33.8 °F /  1 °C 17.6 °F /  -8 °C 30.01in /  1016.1hPa Calm   4.0mph /  6.4km/h 51% 0.02in /  0.5mm
18:54 33.6 °F /  0.9 °C 17.4 °F /  -8.1 °C 30.01in /  1016.1hPa Calm   4.0mph /  6.4km/h 51% 0.02in /  0.5mm
18:59 33.3 °F /  0.7 °C 17.6 °F /  -8 °C 30.01in /  1016.1hPa Calm   2.0mph /  3.2km/h 52% 0.02in /  0.5mm
19:04 33.0 °F /  0.6 °C 16.8 °F /  -8.4 °C 30.01in /  1016.1hPa Calm   3.0mph /  4.8km/h 51% 0.02in /  0.5mm
19:09 32.8 °F /  0.4 °C 18.4 °F /  -7.6 °C 30.01in /  1016.1hPa Calm   3.0mph /  4.8km/h 55% 0.02in /  0.5mm
19:14 32.5 °F /  0.3 °C 19.8 °F /  -6.8 °C 30.01in /  1016.1hPa Calm   1.0mph /  1.6km/h 59% 0.02in /  0.5mm
19:19 32.1 °F /  0.1 °C 18.6 °F /  -7.4 °C 30.01in /  1016.1hPa Calm   1.0mph /  1.6km/h 57% 0.02in /  0.5mm
19:24 31.7 °F /  -0.2 °C 18.6 °F /  -7.4 °C 30.01in /  1016.1hPa Calm     58% 0.02in /  0.5mm
19:29 31.3 °F /  -0.4 °C 19.0 °F /  -7.2 °C 30.01in /  1016.1hPa Calm     60% 0.02in /  0.5mm
19:34 31.1 °F /  -0.5 °C 18.8 °F /  -7.3 °C 30.02in /  1016.5hPa Calm     60% 0.02in /  0.5mm
19:39 30.8 °F /  -0.7 °C 18.6 °F /  -7.4 °C 30.02in /  1016.5hPa Calm     60% 0.02in /  0.5mm
19:45 30.6 °F /  -0.8 °C 18.4 °F /  -7.6 °C 30.02in /  1016.5hPa Calm     60% 0.02in /  0.5mm
19:54 30.5 °F /  -0.8 °C 19.4 °F /  -7 °C 30.02in /  1016.5hPa Calm     63% 0.02in /  0.5mm
19:59 30.4 °F /  -0.9 °C 18.9 °F /  -7.3 °C 30.02in /  1016.5hPa Calm     62% 0.02in /  0.5mm
20:04 30.3 °F /  -0.9 °C 19.2 °F /  -7.1 °C 30.01in /  1016.1hPa Calm     63% 0.02in /  0.5mm
20:09 30.3 °F /  -0.9 °C 18.8 °F /  -7.3 °C 30.02in /  1016.5hPa Calm     62% 0.02in /  0.5mm
20:14 30.3 °F /  -0.9 °C 18.5 °F /  -7.5 °C 30.02in /  1016.5hPa Calm   2.0mph /  3.2km/h 61% 0.02in /  0.5mm
20:19 30.5 °F /  -0.8 °C 18.7 °F /  -7.4 °C 30.02in /  1016.5hPa Calm   3.0mph /  4.8km/h 61% 0.02in /  0.5mm
20:24 30.6 °F /  -0.8 °C 19.1 °F /  -7.2 °C 30.02in /  1016.5hPa Calm   3.0mph /  4.8km/h 62% 0.02in /  0.5mm
20:29 30.6 °F /  -0.8 °C 19.5 °F /  -6.9 °C 30.02in /  1016.5hPa Calm   3.0mph /  4.8km/h 63% 0.02in /  0.5mm
20:34 30.6 °F /  -0.8 °C 18.4 °F /  -7.6 °C 30.02in /  1016.5hPa ENE 1.0mph /  1.6km/h 5.0mph /  8km/h 60% 0.02in /  0.5mm
20:39 30.7 °F /  -0.7 °C 18.8 °F /  -7.3 °C 30.02in /  1016.5hPa Calm   5.0mph /  8km/h 61% 0.02in /  0.5mm
20:44 30.7 °F /  -0.7 °C 17.7 °F /  -7.9 °C 30.02in /  1016.5hPa Calm   2.0mph /  3.2km/h 58% 0.02in /  0.5mm
20:49 30.7 °F /  -0.7 °C 18.1 °F /  -7.7 °C 30.02in /  1016.5hPa Calm     59% 0.02in /  0.5mm
20:54 30.6 °F /  -0.8 °C 18.0 °F /  -7.8 °C 30.02in /  1016.5hPa Calm   1.0mph /  1.6km/h 59% 0.02in /  0.5mm
20:59 30.4 °F /  -0.9 °C 18.9 °F /  -7.3 °C 30.02in /  1016.5hPa Calm   1.0mph /  1.6km/h 62% 0.02in /  0.5mm
21:04 30.3 °F /  -0.9 °C 17.7 °F /  -7.9 °C 30.02in /  1016.5hPa Calm     59% 0.02in /  0.5mm
21:14 30.1 °F /  -1.1 °C 18.3 °F /  -7.6 °C 30.02in /  1016.5hPa Calm   1.0mph /  1.6km/h 61% 0.02in /  0.5mm
21:19 30.0 °F /  -1.1 °C 17.4 °F /  -8.1 °C 30.02in /  1016.5hPa Calm   1.0mph /  1.6km/h 59% 0.02in /  0.5mm
21:24 29.9 °F /  -1.2 °C 18.1 °F /  -7.7 °C 30.02in /  1016.5hPa Calm     61% 0.02in /  0.5mm
21:29 29.9 °F /  -1.2 °C 18.1 °F /  -7.7 °C 30.02in /  1016.5hPa Calm   3.0mph /  4.8km/h 61% 0.02in /  0.5mm
21:34 29.9 °F /  -1.2 °C 18.5 °F /  -7.5 °C 30.02in /  1016.5hPa Calm   3.0mph /  4.8km/h 62% 0.02in /  0.5mm
21:39 30.0 °F /  -1.1 °C 18.6 °F /  -7.4 °C 30.02in /  1016.5hPa Calm   2.0mph /  3.2km/h 62% 0.02in /  0.5mm
21:44 30.1 °F /  -1.1 °C 18.7 °F /  -7.4 °C 30.02in /  1016.5hPa Calm     62% 0.02in /  0.5mm
21:54 30.1 °F /  -1.1 °C 17.9 °F /  -7.8 °C 30.01in /  1016.1hPa Calm   2.0mph /  3.2km/h 60% 0.02in /  0.5mm
21:59 30.1 °F /  -1.1 °C 17.9 °F /  -7.8 °C 30.01in /  1016.1hPa Calm     60% 0.02in /  0.5mm
22:04 30.1 °F /  -1.1 °C 18.7 °F /  -7.4 °C 30.01in /  1016.1hPa Calm     62% 0.02in /  0.5mm
22:09 29.9 °F /  -1.2 °C 18.5 °F /  -7.5 °C 30.01in /  1016.1hPa Calm   3.0mph /  4.8km/h 62% 0.02in /  0.5mm
22:14 29.9 °F /  -1.2 °C 18.1 °F /  -7.7 °C 30.01in /  1016.1hPa Calm   3.0mph /  4.8km/h 61% 0.02in /  0.5mm
22:19 29.7 °F /  -1.3 °C 18.3 °F /  -7.6 °C 30.01in /  1016.1hPa Calm   1.0mph /  1.6km/h 62% 0.02in /  0.5mm
22:24 29.5 °F /  -1.4 °C 18.8 °F /  -7.3 °C 30.01in /  1016.1hPa Calm   1.0mph /  1.6km/h 64% 0.02in /  0.5mm
22:29 29.3 °F /  -1.5 °C 17.9 °F /  -7.8 °C 30.01in /  1016.1hPa Calm     62% 0.02in /  0.5mm
22:34 29.2 °F /  -1.6 °C 18.5 °F /  -7.5 °C 30.01in /  1016.1hPa Calm     64% 0.02in /  0.5mm
22:39 29.1 °F /  -1.6 °C 18.4 °F /  -7.6 °C 30.01in /  1016.1hPa Calm     64% 0.02in /  0.5mm
22:44 29.1 °F /  -1.6 °C 18.1 °F /  -7.7 °C 30.00in /  1015.8hPa Calm   1.0mph /  1.6km/h 63% 0.02in /  0.5mm
22:49 29.0 °F /  -1.7 °C 18.0 °F /  -7.8 °C 30.01in /  1016.1hPa Calm   1.0mph /  1.6km/h 63% 0.02in /  0.5mm
22:54 29.0 °F /  -1.7 °C 19.4 °F /  -7 °C 30.01in /  1016.1hPa Calm     67% 0.02in /  0.5mm
23:04 28.5 °F /  -1.9 °C 18.6 °F /  -7.4 °C 30.01in /  1016.1hPa Calm   1.0mph /  1.6km/h 66% 0.02in /  0.5mm
23:14 28.4 °F /  -2 °C 18.1 °F /  -7.7 °C 30.01in /  1016.1hPa Calm     65% 0.02in /  0.5mm
23:19 28.3 °F /  -2.1 °C 18.0 °F /  -7.8 °C 30.02in /  1016.5hPa Calm     65% 0.02in /  0.5mm
23:29 27.9 °F /  -2.3 °C 18.0 °F /  -7.8 °C 30.02in /  1016.5hPa Calm     66% 0.02in /  0.5mm
23:39 28.0 °F /  -2.2 °C 18.5 °F /  -7.5 °C 30.02in /  1016.5hPa Calm     67% 0.02in /  0.5mm
23:44 28.0 °F /  -2.2 °C 18.5 °F /  -7.5 °C 30.02in /  1016.5hPa Calm     67% 0.02in /  0.5mm
23:49 27.9 °F /  -2.3 °C 18.0 °F /  -7.8 °C 30.03in /  1016.8hPa Calm     66% 0.02in /  0.5mm
23:59 27.9 °F /  -2.3 °C 18.7 °F /  -7.4 °C 30.03in /  1016.8hPa Calm     68% 0.02in /  0.5mm
Westford Weather
Compliments of Weather Underground

 
 
Current Radar Loop:

Copyright © WestfordWeather.net 2007-2014. All rights reserved.